SYZ weather

Shiraz Shahid Dastghaib International Airport
Shiraz, Fars Province, Iran

Public forecast

Using degrees Celsius for public forecast. Weather courtesy of forecast.io.

Current aviation weather report (METAR) for Shiraz Shahid Dastghaib International Airport

Retrieved 2020/07/02 05:00 UTC (27 minutes ago):

OISS 020500Z 11004KT CAVOK 29/03 Q1013 A2992

Aviation forecast (TAF) for Shiraz Shahid Dastghaib International Airport

Retrieved 2020-07-02 00:09 UTC (5 hours ago):

TAF OISS 012300Z 0200/0306 28008KT 8000 NSC TEMPO 0209/0215 20016KT